Allensworth, California
Current Conditions -  °F | °C
As of 7:55 PM on Tuesday 25 Nov 2014 (Local Time) from KPTV Reporting Station
Clear Clear  
Wind Chill: 42°   Ceiling: Unl
Heat Index: 46°   Visibility: 5mi
Dew Point: 41°   Wind: 8mph
Humidity: 81%   Direction: 120°ESE
Pressure: 30.4"   Gusts: NA
Location:  35.856°N, 119.335°W
Report Text: KPTV 260355Z AUTO 12007KT 5SM CLR 08/05 A3040 RMK AO1
Loading
Personal Weather Stations






























Interactive Weather Map New forecast layout! Learn more

10-Day Weather Forecast

Advertisements
Track Severe Weather on mobile